sensor_id;sensor_type;location;lat;lon;timestamp;P1;durP1;ratioP1;P2;durP2;ratioP2
1446;SDS011;717;51.522;7.266;2023-09-08T00:01:15;4.95;;;4.28;;
1446;SDS011;717;51.522;7.266;2023-09-08T00:03:46;6.47;;;4.28;;
1446;SDS011;717;51.522;7.266;2023-09-08T00:06:18;6.05;;;4.93;;
1446;SDS011;717;51.522;7.266;2023-09-08T00:08:48;4.75;;;4.22;;
1446;SDS011;717;51.522;7.266;2023-09-08T00:11:18;5.00;;;4.53;;
1446;SDS011;717;51.522;7.266;2023-09-08T00:13:48;4.70;;;4.30;;
1446;SDS011;717;51.522;7.266;2023-09-08T00:16:19;5.13;;;4.40;;
1446;SDS011;717;51.522;7.266;2023-09-08T00:18:49;4.80;;;4.30;;
1446;SDS011;717;51.522;7.266;2023-09-08T00:21:22;6.22;;;4.18;;
1446;SDS011;717;51.522;7.266;2023-09-08T00:23:53;5.10;;;4.43;;
1446;SDS011;717;51.522;7.266;2023-09-08T00:26:23;4.57;;;4.07;;
1446;SDS011;717;51.522;7.266;2023-09-08T00:28:53;6.25;;;4.18;;
1446;SDS011;717;51.522;7.266;2023-09-08T00:31:23;6.10;;;4.32;;
1446;SDS011;717;51.522;7.266;2023-09-08T00:33:53;5.07;;;3.88;;
1446;SDS011;717;51.522;7.266;2023-09-08T00:36:26;5.43;;;4.22;;
1446;SDS011;717;51.522;7.266;2023-09-08T00:38:56;4.88;;;4.38;;
1446;SDS011;717;51.522;7.266;2023-09-08T00:41:27;4.63;;;4.22;;
1446;SDS011;717;51.522;7.266;2023-09-08T00:43:57;4.55;;;4.20;;
1446;SDS011;717;51.522;7.266;2023-09-08T00:46:27;5.10;;;4.40;;
1446;SDS011;717;51.522;7.266;2023-09-08T00:48:58;4.97;;;4.57;;
1446;SDS011;717;51.522;7.266;2023-09-08T00:51:30;4.97;;;4.47;;
1446;SDS011;717;51.522;7.266;2023-09-08T00:54:01;4.28;;;3.88;;
1446;SDS011;717;51.522;7.266;2023-09-08T00:56:31;5.22;;;4.07;;
1446;SDS011;717;51.522;7.266;2023-09-08T00:59:03;5.25;;;4.43;;
1446;SDS011;717;51.522;7.266;2023-09-08T01:01:34;4.78;;;4.28;;
1446;SDS011;717;51.522;7.266;2023-09-08T01:04:06;5.10;;;4.60;;
1446;SDS011;717;51.522;7.266;2023-09-08T01:06:39;5.07;;;4.30;;
1446;SDS011;717;51.522;7.266;2023-09-08T01:09:10;4.80;;;4.38;;
1446;SDS011;717;51.522;7.266;2023-09-08T01:11:42;4.72;;;4.05;;
1446;SDS011;717;51.522;7.266;2023-09-08T01:14:17;4.80;;;3.95;;
1446;SDS011;717;51.522;7.266;2023-09-08T01:16:47;4.88;;;4.03;;
1446;SDS011;717;51.522;7.266;2023-09-08T01:19:18;7.63;;;4.18;;
1446;SDS011;717;51.522;7.266;2023-09-08T01:22:08;6.32;;;4.00;;
1446;SDS011;717;51.522;7.266;2023-09-08T01:25:07;4.75;;;4.35;;
1446;SDS011;717;51.522;7.266;2023-09-08T01:27:43;6.43;;;4.70;;
1446;SDS011;717;51.522;7.266;2023-09-08T01:30:16;5.03;;;4.53;;
1446;SDS011;717;51.522;7.266;2023-09-08T01:32:47;5.47;;;4.15;;
1446;SDS011;717;51.522;7.266;2023-09-08T01:35:18;5.13;;;4.63;;
1446;SDS011;717;51.522;7.266;2023-09-08T01:37:48;6.10;;;4.50;;
1446;SDS011;717;51.522;7.266;2023-09-08T01:40:21;7.22;;;4.85;;
1446;SDS011;717;51.522;7.266;2023-09-08T01:42:51;5.15;;;4.65;;
1446;SDS011;717;51.522;7.266;2023-09-08T01:45:21;5.00;;;4.53;;
1446;SDS011;717;51.522;7.266;2023-09-08T01:47:52;5.25;;;4.18;;
1446;SDS011;717;51.522;7.266;2023-09-08T01:50:22;5.60;;;4.30;;
1446;SDS011;717;51.522;7.266;2023-09-08T01:52:52;5.53;;;4.95;;
1446;SDS011;717;51.522;7.266;2023-09-08T01:55:25;6.85;;;5.25;;
1446;SDS011;717;51.522;7.266;2023-09-08T01:57:56;5.00;;;4.45;;
1446;SDS011;717;51.522;7.266;2023-09-08T02:00:27;4.63;;;4.22;;
1446;SDS011;717;51.522;7.266;2023-09-08T02:02:57;5.22;;;4.68;;
1446;SDS011;717;51.522;7.266;2023-09-08T02:05:27;4.45;;;4.05;;
1446;SDS011;717;51.522;7.266;2023-09-08T02:07:57;6.03;;;4.35;;
1446;SDS011;717;51.522;7.266;2023-09-08T02:10:33;5.10;;;4.70;;
1446;SDS011;717;51.522;7.266;2023-09-08T02:13:03;5.30;;;4.18;;
1446;SDS011;717;51.522;7.266;2023-09-08T02:15:34;5.18;;;4.78;;
1446;SDS011;717;51.522;7.266;2023-09-08T02:18:06;5.15;;;4.43;;
1446;SDS011;717;51.522;7.266;2023-09-08T02:20:36;5.10;;;4.70;;
1446;SDS011;717;51.522;7.266;2023-09-08T02:23:07;5.18;;;4.47;;
1446;SDS011;717;51.522;7.266;2023-09-08T02:25:40;4.82;;;4.35;;
1446;SDS011;717;51.522;7.266;2023-09-08T02:28:10;4.72;;;4.32;;
1446;SDS011;717;51.522;7.266;2023-09-08T02:30:40;4.82;;;4.43;;
1446;SDS011;717;51.522;7.266;2023-09-08T02:33:10;4.90;;;4.45;;
1446;SDS011;717;51.522;7.266;2023-09-08T02:35:40;4.70;;;4.30;;
1446;SDS011;717;51.522;7.266;2023-09-08T02:38:11;4.82;;;3.95;;
1446;SDS011;717;51.522;7.266;2023-09-08T02:40:43;6.20;;;4.50;;
1446;SDS011;717;51.522;7.266;2023-09-08T02:43:13;4.68;;;4.25;;
1446;SDS011;717;51.522;7.266;2023-09-08T02:45:44;5.03;;;4.53;;
1446;SDS011;717;51.522;7.266;2023-09-08T02:48:17;4.50;;;4.10;;
1446;SDS011;717;51.522;7.266;2023-09-08T02:50:47;5.03;;;4.32;;
1446;SDS011;717;51.522;7.266;2023-09-08T02:53:17;5.45;;;4.40;;
1446;SDS011;717;51.522;7.266;2023-09-08T02:55:51;4.97;;;4.53;;
1446;SDS011;717;51.522;7.266;2023-09-08T02:58:21;5.50;;;5.00;;
1446;SDS011;717;51.522;7.266;2023-09-08T03:00:52;4.85;;;4.45;;
1446;SDS011;717;51.522;7.266;2023-09-08T03:03:22;4.90;;;4.47;;
1446;SDS011;717;51.522;7.266;2023-09-08T03:05:53;4.90;;;4.50;;
1446;SDS011;717;51.522;7.266;2023-09-08T03:08:27;4.97;;;4.50;;
1446;SDS011;717;51.522;7.266;2023-09-08T03:11:00;5.22;;;4.50;;
1446;SDS011;717;51.522;7.266;2023-09-08T03:13:30;5.25;;;4.85;;
1446;SDS011;717;51.522;7.266;2023-09-08T03:16:04;5.25;;;4.85;;
1446;SDS011;717;51.522;7.266;2023-09-08T03:18:35;5.00;;;4.50;;
1446;SDS011;717;51.522;7.266;2023-09-08T03:21:06;4.75;;;4.32;;
1446;SDS011;717;51.522;7.266;2023-09-08T03:23:39;7.82;;;4.82;;
1446;SDS011;717;51.522;7.266;2023-09-08T03:26:13;5.32;;;4.82;;
1446;SDS011;717;51.522;7.266;2023-09-08T03:28:43;4.97;;;4.45;;
1446;SDS011;717;51.522;7.266;2023-09-08T03:31:13;4.85;;;4.45;;
1446;SDS011;717;51.522;7.266;2023-09-08T03:33:44;5.95;;;4.65;;
1446;SDS011;717;51.522;7.266;2023-09-08T03:36:15;5.78;;;4.93;;
1446;SDS011;717;51.522;7.266;2023-09-08T03:38:46;5.65;;;4.45;;
1446;SDS011;717;51.522;7.266;2023-09-08T03:41:18;5.03;;;4.63;;
1446;SDS011;717;51.522;7.266;2023-09-08T03:43:48;5.28;;;4.80;;
1446;SDS011;717;51.522;7.266;2023-09-08T03:46:19;4.88;;;4.47;;
1446;SDS011;717;51.522;7.266;2023-09-08T03:48:51;6.80;;;4.72;;
1446;SDS011;717;51.522;7.266;2023-09-08T03:51:26;5.43;;;4.88;;
1446;SDS011;717;51.522;7.266;2023-09-08T03:53:56;5.57;;;4.97;;
1446;SDS011;717;51.522;7.266;2023-09-08T03:56:30;5.05;;;4.55;;
1446;SDS011;717;51.522;7.266;2023-09-08T03:59:00;5.30;;;4.80;;
1446;SDS011;717;51.522;7.266;2023-09-08T04:01:30;5.03;;;4.60;;
1446;SDS011;717;51.522;7.266;2023-09-08T04:04:01;6.82;;;4.75;;
1446;SDS011;717;51.522;7.266;2023-09-08T04:06:31;5.47;;;5.00;;
1446;SDS011;717;51.522;7.266;2023-09-08T04:09:01;4.85;;;4.45;;
1446;SDS011;717;51.522;7.266;2023-09-08T04:11:34;4.60;;;4.18;;
1446;SDS011;717;51.522;7.266;2023-09-08T04:14:04;5.53;;;5.03;;
1446;SDS011;717;51.522;7.266;2023-09-08T04:16:34;4.97;;;4.47;;
1446;SDS011;717;51.522;7.266;2023-09-08T04:19:04;6.25;;;5.03;;
1446;SDS011;717;51.522;7.266;2023-09-08T04:21:34;5.60;;;5.03;;
1446;SDS011;717;51.522;7.266;2023-09-08T04:24:05;5.85;;;4.75;;
1446;SDS011;717;51.522;7.266;2023-09-08T04:26:40;5.25;;;4.72;;
1446;SDS011;717;51.522;7.266;2023-09-08T04:29:10;5.10;;;4.60;;
1446;SDS011;717;51.522;7.266;2023-09-08T04:31:40;6.35;;;4.65;;
1446;SDS011;717;51.522;7.266;2023-09-08T04:34:10;5.18;;;4.68;;
1446;SDS011;717;51.522;7.266;2023-09-08T04:36:40;6.40;;;4.70;;
1446;SDS011;717;51.522;7.266;2023-09-08T04:39:10;5.47;;;4.97;;
1446;SDS011;717;51.522;7.266;2023-09-08T04:41:44;6.20;;;4.57;;
1446;SDS011;717;51.522;7.266;2023-09-08T04:44:15;5.30;;;4.80;;
1446;SDS011;717;51.522;7.266;2023-09-08T04:46:45;7.13;;;5.20;;
1446;SDS011;717;51.522;7.266;2023-09-08T04:49:15;7.47;;;5.00;;
1446;SDS011;717;51.522;7.266;2023-09-08T04:51:45;8.63;;;5.22;;
1446;SDS011;717;51.522;7.266;2023-09-08T04:54:18;7.38;;;5.22;;
1446;SDS011;717;51.522;7.266;2023-09-08T04:56:57;6.55;;;5.05;;
1446;SDS011;717;51.522;7.266;2023-09-08T04:59:46;6.15;;;4.93;;
1446;SDS011;717;51.522;7.266;2023-09-08T05:02:16;6.85;;;5.05;;
1446;SDS011;717;51.522;7.266;2023-09-08T05:04:47;8.70;;;5.10;;
1446;SDS011;717;51.522;7.266;2023-09-08T05:07:17;6.80;;;5.00;;
1446;SDS011;717;51.522;7.266;2023-09-08T05:09:48;7.05;;;5.30;;
1446;SDS011;717;51.522;7.266;2023-09-08T05:12:25;6.03;;;5.43;;
1446;SDS011;717;51.522;7.266;2023-09-08T05:14:55;6.22;;;5.60;;
1446;SDS011;717;51.522;7.266;2023-09-08T05:17:35;7.32;;;6.07;;
1446;SDS011;717;51.522;7.266;2023-09-08T05:20:06;7.55;;;5.40;;
1446;SDS011;717;51.522;7.266;2023-09-08T05:22:37;5.82;;;4.97;;
1446;SDS011;717;51.522;7.266;2023-09-08T05:25:07;6.65;;;5.15;;
1446;SDS011;717;51.522;7.266;2023-09-08T05:27:41;8.07;;;5.05;;
1446;SDS011;717;51.522;7.266;2023-09-08T05:30:13;7.03;;;4.95;;
1446;SDS011;717;51.522;7.266;2023-09-08T05:32:43;5.60;;;5.10;;
1446;SDS011;717;51.522;7.266;2023-09-08T05:35:14;6.50;;;5.13;;
1446;SDS011;717;51.522;7.266;2023-09-08T05:37:45;6.45;;;4.63;;
1446;SDS011;717;51.522;7.266;2023-09-08T05:40:16;6.32;;;5.25;;
1446;SDS011;717;51.522;7.266;2023-09-08T05:42:50;6.57;;;5.30;;
1446;SDS011;717;51.522;7.266;2023-09-08T05:45:21;5.50;;;4.90;;
1446;SDS011;717;51.522;7.266;2023-09-08T05:47:52;5.60;;;4.93;;
1446;SDS011;717;51.522;7.266;2023-09-08T05:50:23;5.50;;;4.82;;
1446;SDS011;717;51.522;7.266;2023-09-08T05:52:54;6.50;;;5.65;;
1446;SDS011;717;51.522;7.266;2023-09-08T05:55:24;6.82;;;5.22;;
1446;SDS011;717;51.522;7.266;2023-09-08T05:57:57;7.60;;;5.40;;
1446;SDS011;717;51.522;7.266;2023-09-08T06:00:27;5.97;;;5.40;;
1446;SDS011;717;51.522;7.266;2023-09-08T06:02:57;6.07;;;5.45;;
1446;SDS011;717;51.522;7.266;2023-09-08T06:05:28;6.65;;;5.05;;
1446;SDS011;717;51.522;7.266;2023-09-08T06:07:58;6.07;;;4.93;;
1446;SDS011;717;51.522;7.266;2023-09-08T06:10:37;9.52;;;5.78;;
1446;SDS011;717;51.522;7.266;2023-09-08T06:13:10;6.25;;;5.30;;
1446;SDS011;717;51.522;7.266;2023-09-08T06:15:42;6.20;;;4.80;;
1446;SDS011;717;51.522;7.266;2023-09-08T06:18:12;6.00;;;4.75;;
1446;SDS011;717;51.522;7.266;2023-09-08T06:20:45;8.07;;;4.78;;
1446;SDS011;717;51.522;7.266;2023-09-08T06:23:19;5.53;;;4.68;;
1446;SDS011;717;51.522;7.266;2023-09-08T06:25:51;6.05;;;5.35;;
1446;SDS011;717;51.522;7.266;2023-09-08T06:28:31;6.15;;;4.93;;
1446;SDS011;717;51.522;7.266;2023-09-08T06:31:03;5.03;;;4.53;;
1446;SDS011;717;51.522;7.266;2023-09-08T06:33:36;5.85;;;4.70;;
1446;SDS011;717;51.522;7.266;2023-09-08T06:36:06;6.10;;;4.47;;
1446;SDS011;717;51.522;7.266;2023-09-08T06:38:36;4.80;;;4.40;;
1446;SDS011;717;51.522;7.266;2023-09-08T06:41:09;6.55;;;4.50;;
1446;SDS011;717;51.522;7.266;2023-09-08T06:43:44;4.93;;;4.18;;
1446;SDS011;717;51.522;7.266;2023-09-08T06:46:20;6.65;;;4.47;;
1446;SDS011;717;51.522;7.266;2023-09-08T06:48:50;4.90;;;4.22;;
1446;SDS011;717;51.522;7.266;2023-09-08T06:51:20;6.43;;;4.25;;
1446;SDS011;717;51.522;7.266;2023-09-08T06:53:54;5.18;;;4.68;;
1446;SDS011;717;51.522;7.266;2023-09-08T06:56:33;5.93;;;4.72;;
1446;SDS011;717;51.522;7.266;2023-09-08T06:59:08;6.00;;;4.57;;
1446;SDS011;717;51.522;7.266;2023-09-08T07:01:38;6.13;;;5.18;;
1446;SDS011;717;51.522;7.266;2023-09-08T07:04:09;5.53;;;4.90;;
1446;SDS011;717;51.522;7.266;2023-09-08T07:06:39;4.88;;;4.35;;
1446;SDS011;717;51.522;7.266;2023-09-08T07:09:12;6.00;;;4.50;;
1446;SDS011;717;51.522;7.266;2023-09-08T07:11:42;6.90;;;4.70;;
1446;SDS011;717;51.522;7.266;2023-09-08T07:14:15;6.95;;;4.50;;
1446;SDS011;717;51.522;7.266;2023-09-08T07:16:45;5.15;;;4.10;;
1446;SDS011;717;51.522;7.266;2023-09-08T07:19:16;5.03;;;4.53;;
1446;SDS011;717;51.522;7.266;2023-09-08T07:21:46;5.35;;;4.35;;
1446;SDS011;717;51.522;7.266;2023-09-08T07:24:16;5.97;;;4.57;;
1446;SDS011;717;51.522;7.266;2023-09-08T07:26:46;6.47;;;4.75;;
1446;SDS011;717;51.522;7.266;2023-09-08T07:29:20;5.55;;;4.32;;
1446;SDS011;717;51.522;7.266;2023-09-08T07:31:50;5.80;;;4.22;;
1446;SDS011;717;51.522;7.266;2023-09-08T07:34:20;8.55;;;4.75;;
1446;SDS011;717;51.522;7.266;2023-09-08T07:36:50;7.03;;;4.55;;
1446;SDS011;717;51.522;7.266;2023-09-08T07:39:20;6.68;;;4.32;;
1446;SDS011;717;51.522;7.266;2023-09-08T07:41:51;6.53;;;4.75;;
1446;SDS011;717;51.522;7.266;2023-09-08T07:44:29;5.03;;;4.55;;
1446;SDS011;717;51.522;7.266;2023-09-08T07:47:00;5.43;;;4.15;;
1446;SDS011;717;51.522;7.266;2023-09-08T07:49:30;4.97;;;4.43;;
1446;SDS011;717;51.522;7.266;2023-09-08T07:52:02;6.00;;;3.72;;
1446;SDS011;717;51.522;7.266;2023-09-08T07:54:34;9.05;;;4.70;;
1446;SDS011;717;51.522;7.266;2023-09-08T07:57:04;6.30;;;4.40;;
1446;SDS011;717;51.522;7.266;2023-09-08T07:59:37;5.35;;;3.88;;
1446;SDS011;717;51.522;7.266;2023-09-08T08:02:07;8.50;;;4.22;;
1446;SDS011;717;51.522;7.266;2023-09-08T08:04:37;5.22;;;4.15;;
1446;SDS011;717;51.522;7.266;2023-09-08T08:07:07;6.90;;;4.32;;
1446;SDS011;717;51.522;7.266;2023-09-08T08:09:37;5.93;;;4.53;;
1446;SDS011;717;51.522;7.266;2023-09-08T08:12:10;8.05;;;4.15;;
1446;SDS011;717;51.522;7.266;2023-09-08T08:14:42;5.50;;;4.28;;
1446;SDS011;717;51.522;7.266;2023-09-08T08:17:12;5.13;;;3.88;;
1446;SDS011;717;51.522;7.266;2023-09-08T08:19:44;4.43;;;3.63;;
1446;SDS011;717;51.522;7.266;2023-09-08T08:22:14;6.65;;;4.38;;
1446;SDS011;717;51.522;7.266;2023-09-08T08:24:44;4.22;;;3.63;;
1446;SDS011;717;51.522;7.266;2023-09-08T08:27:14;7.75;;;4.07;;
1446;SDS011;717;51.522;7.266;2023-09-08T08:29:47;7.88;;;3.67;;
1446;SDS011;717;51.522;7.266;2023-09-08T08:32:17;5.78;;;3.60;;
1446;SDS011;717;51.522;7.266;2023-09-08T08:34:47;4.70;;;3.78;;
1446;SDS011;717;51.522;7.266;2023-09-08T08:37:17;5.72;;;3.70;;
1446;SDS011;717;51.522;7.266;2023-09-08T08:39:47;5.57;;;3.90;;
1446;SDS011;717;51.522;7.266;2023-09-08T08:42:18;4.90;;;3.72;;
1446;SDS011;717;51.522;7.266;2023-09-08T08:44:51;4.63;;;3.78;;
1446;SDS011;717;51.522;7.266;2023-09-08T08:47:22;5.18;;;4.18;;
1446;SDS011;717;51.522;7.266;2023-09-08T08:49:54;4.15;;;3.42;;
1446;SDS011;717;51.522;7.266;2023-09-08T08:52:26;5.63;;;3.88;;
1446;SDS011;717;51.522;7.266;2023-09-08T08:54:57;5.13;;;3.45;;
1446;SDS011;717;51.522;7.266;2023-09-08T08:57:29;4.38;;;3.63;;
1446;SDS011;717;51.522;7.266;2023-09-08T09:00:03;3.38;;;3.08;;
1446;SDS011;717;51.522;7.266;2023-09-08T09:02:38;6.60;;;3.85;;
1446;SDS011;717;51.522;7.266;2023-09-08T09:05:12;4.28;;;3.42;;
1446;SDS011;717;51.522;7.266;2023-09-08T09:07:43;4.63;;;3.72;;
1446;SDS011;717;51.522;7.266;2023-09-08T09:10:13;4.88;;;3.78;;
1446;SDS011;717;51.522;7.266;2023-09-08T09:12:44;4.95;;;3.85;;
1446;SDS011;717;51.522;7.266;2023-09-08T09:15:16;3.88;;;3.47;;
1446;SDS011;717;51.522;7.266;2023-09-08T09:18:02;5.15;;;3.67;;
1446;SDS011;717;51.522;7.266;2023-09-08T09:20:34;4.25;;;3.63;;
1446;SDS011;717;51.522;7.266;2023-09-08T09:23:04;5.75;;;3.70;;
1446;SDS011;717;51.522;7.266;2023-09-08T09:25:34;6.00;;;3.55;;
1446;SDS011;717;51.522;7.266;2023-09-08T09:28:05;5.07;;;3.50;;
1446;SDS011;717;51.522;7.266;2023-09-08T09:30:50;4.43;;;3.72;;
1446;SDS011;717;51.522;7.266;2023-09-08T09:33:21;4.70;;;3.45;;
1446;SDS011;717;51.522;7.266;2023-09-08T09:35:53;3.80;;;3.40;;
1446;SDS011;717;51.522;7.266;2023-09-08T09:38:25;3.53;;;3.22;;
1446;SDS011;717;51.522;7.266;2023-09-08T09:40:57;4.53;;;3.35;;
1446;SDS011;717;51.522;7.266;2023-09-08T09:43:28;3.78;;;3.38;;
1446;SDS011;717;51.522;7.266;2023-09-08T09:46:01;3.70;;;3.40;;
1446;SDS011;717;51.522;7.266;2023-09-08T09:48:31;4.18;;;3.75;;
1446;SDS011;717;51.522;7.266;2023-09-08T09:51:14;3.47;;;3.17;;
1446;SDS011;717;51.522;7.266;2023-09-08T09:53:46;4.90;;;3.50;;
1446;SDS011;717;51.522;7.266;2023-09-08T09:56:17;4.40;;;3.15;;
1446;SDS011;717;51.522;7.266;2023-09-08T09:58:47;3.38;;;3.08;;
1446;SDS011;717;51.522;7.266;2023-09-08T10:01:21;3.78;;;3.38;;
1446;SDS011;717;51.522;7.266;2023-09-08T10:03:54;4.97;;;3.33;;
1446;SDS011;717;51.522;7.266;2023-09-08T10:06:24;4.30;;;3.15;;
1446;SDS011;717;51.522;7.266;2023-09-08T10:08:56;3.78;;;3.38;;
1446;SDS011;717;51.522;7.266;2023-09-08T10:11:28;3.05;;;2.85;;
1446;SDS011;717;51.522;7.266;2023-09-08T10:14:04;3.10;;;2.80;;
1446;SDS011;717;51.522;7.266;2023-09-08T10:16:40;3.00;;;2.70;;
1446;SDS011;717;51.522;7.266;2023-09-08T10:19:16;3.92;;;3.50;;
1446;SDS011;717;51.522;7.266;2023-09-08T10:21:47;3.20;;;2.88;;
1446;SDS011;717;51.522;7.266;2023-09-08T10:24:21;3.70;;;2.90;;
1446;SDS011;717;51.522;7.266;2023-09-08T10:26:55;3.83;;;2.90;;
1446;SDS011;717;51.522;7.266;2023-09-08T10:29:28;3.53;;;2.97;;
1446;SDS011;717;51.522;7.266;2023-09-08T10:32:01;5.80;;;3.20;;
1446;SDS011;717;51.522;7.266;2023-09-08T10:34:34;4.35;;;3.15;;
1446;SDS011;717;51.522;7.266;2023-09-08T10:37:18;6.20;;;3.13;;
1446;SDS011;717;51.522;7.266;2023-09-08T10:39:51;3.33;;;3.03;;
1446;SDS011;717;51.522;7.266;2023-09-08T10:42:24;4.35;;;3.17;;
1446;SDS011;717;51.522;7.266;2023-09-08T10:44:56;4.90;;;3.10;;
1446;SDS011;717;51.522;7.266;2023-09-08T10:47:34;4.80;;;3.08;;
1446;SDS011;717;51.522;7.266;2023-09-08T10:50:27;3.60;;;3.30;;
1446;SDS011;717;51.522;7.266;2023-09-08T10:53:08;5.35;;;3.50;;
1446;SDS011;717;51.522;7.266;2023-09-08T10:55:43;3.50;;;2.90;;
1446;SDS011;717;51.522;7.266;2023-09-08T10:58:38;5.35;;;3.40;;
1446;SDS011;717;51.522;7.266;2023-09-08T11:01:12;3.78;;;3.25;;
1446;SDS011;717;51.522;7.266;2023-09-08T11:03:47;4.57;;;3.25;;
1446;SDS011;717;51.522;7.266;2023-09-08T11:06:18;3.20;;;2.90;;
1446;SDS011;717;51.522;7.266;2023-09-08T11:08:57;4.03;;;3.33;;
1446;SDS011;717;51.522;7.266;2023-09-08T11:11:36;5.35;;;3.15;;
1446;SDS011;717;51.522;7.266;2023-09-08T11:14:06;4.07;;;2.90;;
1446;SDS011;717;51.522;7.266;2023-09-08T11:16:36;4.43;;;3.17;;
1446;SDS011;717;51.522;7.266;2023-09-08T11:19:09;3.17;;;2.78;;
1446;SDS011;717;51.522;7.266;2023-09-08T11:21:39;3.28;;;2.97;;
1446;SDS011;717;51.522;7.266;2023-09-08T11:24:09;3.53;;;3.22;;
1446;SDS011;717;51.522;7.266;2023-09-08T11:26:41;3.78;;;2.83;;
1446;SDS011;717;51.522;7.266;2023-09-08T11:29:13;3.05;;;2.75;;
1446;SDS011;717;51.522;7.266;2023-09-08T11:31:43;3.33;;;3.03;;
1446;SDS011;717;51.522;7.266;2023-09-08T11:34:16;3.60;;;3.28;;
1446;SDS011;717;51.522;7.266;2023-09-08T11:36:46;3.53;;;3.20;;
1446;SDS011;717;51.522;7.266;2023-09-08T11:39:16;3.75;;;3.45;;
1446;SDS011;717;51.522;7.266;2023-09-08T11:41:46;3.85;;;3.20;;
1446;SDS011;717;51.522;7.266;2023-09-08T11:44:16;3.55;;;3.03;;
1446;SDS011;717;51.522;7.266;2023-09-08T11:46:47;4.47;;;3.08;;
1446;SDS011;717;51.522;7.266;2023-09-08T11:49:21;3.38;;;3.03;;
1446;SDS011;717;51.522;7.266;2023-09-08T11:51:51;5.53;;;3.63;;
1446;SDS011;717;51.522;7.266;2023-09-08T11:54:21;3.70;;;2.90;;
1446;SDS011;717;51.522;7.266;2023-09-08T11:56:51;3.33;;;3.03;;
1446;SDS011;717;51.522;7.266;2023-09-08T11:59:21;3.20;;;2.90;;
1446;SDS011;717;51.522;7.266;2023-09-08T12:01:51;3.47;;;3.00;;
1446;SDS011;717;51.522;7.266;2023-09-08T12:04:24;4.20;;;3.08;;
1446;SDS011;717;51.522;7.266;2023-09-08T12:06:55;3.53;;;3.22;;
1446;SDS011;717;51.522;7.266;2023-09-08T12:09:25;4.78;;;3.08;;
1446;SDS011;717;51.522;7.266;2023-09-08T12:11:55;3.90;;;2.85;;
1446;SDS011;717;51.522;7.266;2023-09-08T12:14:25;3.08;;;2.85;;
1446;SDS011;717;51.522;7.266;2023-09-08T12:17:04;3.75;;;3.33;;
1446;SDS011;717;51.522;7.266;2023-09-08T12:19:38;3.47;;;3.15;;
1446;SDS011;717;51.522;7.266;2023-09-08T12:22:08;4.13;;;3.05;;
1446;SDS011;717;51.522;7.266;2023-09-08T12:27:37;4.60;;;3.10;;
1446;SDS011;717;51.522;7.266;2023-09-08T12:30:07;3.72;;;3.10;;
1446;SDS011;717;51.522;7.266;2023-09-08T12:32:41;3.85;;;3.10;;
1446;SDS011;717;51.522;7.266;2023-09-08T12:35:18;3.63;;;3.30;;
1446;SDS011;717;51.522;7.266;2023-09-08T12:37:52;4.93;;;3.40;;
1446;SDS011;717;51.522;7.266;2023-09-08T12:40:23;3.60;;;3.20;;
1446;SDS011;717;51.522;7.266;2023-09-08T12:42:54;3.10;;;2.90;;
1446;SDS011;717;51.522;7.266;2023-09-08T12:45:37;4.18;;;3.30;;
1446;SDS011;717;51.522;7.266;2023-09-08T12:48:07;3.28;;;2.97;;
1446;SDS011;717;51.522;7.266;2023-09-08T12:50:39;3.40;;;3.10;;
1446;SDS011;717;51.522;7.266;2023-09-08T12:53:09;4.22;;;3.28;;
1446;SDS011;717;51.522;7.266;2023-09-08T12:55:40;6.28;;;3.33;;
1446;SDS011;717;51.522;7.266;2023-09-08T12:58:10;3.42;;;3.13;;
1446;SDS011;717;51.522;7.266;2023-09-08T13:00:40;3.20;;;2.90;;
1446;SDS011;717;51.522;7.266;2023-09-08T13:03:10;3.83;;;3.08;;
1446;SDS011;717;51.522;7.266;2023-09-08T13:05:42;3.78;;;3.33;;
1446;SDS011;717;51.522;7.266;2023-09-08T13:08:13;3.78;;;3.33;;
1446;SDS011;717;51.522;7.266;2023-09-08T13:10:43;5.25;;;3.15;;
1446;SDS011;717;51.522;7.266;2023-09-08T13:13:13;3.90;;;3.00;;
1446;SDS011;717;51.522;7.266;2023-09-08T13:15:43;3.13;;;2.90;;
1446;SDS011;717;51.522;7.266;2023-09-08T13:18:13;5.15;;;3.00;;
1446;SDS011;717;51.522;7.266;2023-09-08T13:20:46;3.40;;;3.10;;
1446;SDS011;717;51.522;7.266;2023-09-08T13:23:16;3.47;;;2.90;;
1446;SDS011;717;51.522;7.266;2023-09-08T13:25:46;4.28;;;3.53;;
1446;SDS011;717;51.522;7.266;2023-09-08T13:28:19;3.58;;;3.08;;
1446;SDS011;717;51.522;7.266;2023-09-08T13:30:49;3.50;;;3.00;;
1446;SDS011;717;51.522;7.266;2023-09-08T13:33:19;3.20;;;2.95;;
1446;SDS011;717;51.522;7.266;2023-09-08T13:35:52;3.25;;;2.78;;
1446;SDS011;717;51.522;7.266;2023-09-08T13:38:22;3.17;;;2.83;;
1446;SDS011;717;51.522;7.266;2023-09-08T13:40:52;3.83;;;2.60;;
1446;SDS011;717;51.522;7.266;2023-09-08T13:43:23;3.08;;;2.78;;
1446;SDS011;717;51.522;7.266;2023-09-08T13:45:53;3.30;;;2.90;;
1446;SDS011;717;51.522;7.266;2023-09-08T13:48:23;3.20;;;3.00;;
1446;SDS011;717;51.522;7.266;2023-09-08T13:50:57;3.38;;;3.08;;
1446;SDS011;717;51.522;7.266;2023-09-08T13:53:32;3.40;;;3.10;;
1446;SDS011;717;51.522;7.266;2023-09-08T13:56:12;2.97;;;2.60;;
1446;SDS011;717;51.522;7.266;2023-09-08T13:58:46;3.05;;;2.85;;
1446;SDS011;717;51.522;7.266;2023-09-08T14:01:21;3.17;;;2.83;;
1446;SDS011;717;51.522;7.266;2023-09-08T14:03:59;4.45;;;2.90;;
1446;SDS011;717;51.522;7.266;2023-09-08T14:06:38;3.05;;;2.80;;
1446;SDS011;717;51.522;7.266;2023-09-08T14:09:17;3.60;;;2.85;;
1446;SDS011;717;51.522;7.266;2023-09-08T14:11:50;3.97;;;2.75;;
1446;SDS011;717;51.522;7.266;2023-09-08T14:14:23;4.20;;;2.75;;
1446;SDS011;717;51.522;7.266;2023-09-08T14:16:53;5.55;;;3.22;;
1446;SDS011;717;51.522;7.266;2023-09-08T14:19:23;3.58;;;3.28;;
1446;SDS011;717;51.522;7.266;2023-09-08T14:21:56;4.80;;;3.00;;
1446;SDS011;717;51.522;7.266;2023-09-08T14:24:26;3.42;;;3.13;;
1446;SDS011;717;51.522;7.266;2023-09-08T14:26:56;3.15;;;2.90;;
1446;SDS011;717;51.522;7.266;2023-09-08T14:29:26;3.88;;;3.20;;
1446;SDS011;717;51.522;7.266;2023-09-08T14:31:56;4.88;;;3.10;;
1446;SDS011;717;51.522;7.266;2023-09-08T14:34:26;3.53;;;3.10;;
1446;SDS011;717;51.522;7.266;2023-09-08T14:36:58;3.60;;;3.17;;
1446;SDS011;717;51.522;7.266;2023-09-08T14:39:31;3.17;;;2.88;;
1446;SDS011;717;51.522;7.266;2023-09-08T14:42:01;3.15;;;2.75;;
1446;SDS011;717;51.522;7.266;2023-09-08T14:44:32;3.60;;;2.80;;
1446;SDS011;717;51.522;7.266;2023-09-08T14:47:02;3.20;;;2.90;;
1446;SDS011;717;51.522;7.266;2023-09-08T14:49:32;3.22;;;2.92;;
1446;SDS011;717;51.522;7.266;2023-09-08T14:52:05;3.28;;;2.97;;
1446;SDS011;717;51.522;7.266;2023-09-08T14:54:35;3.10;;;2.85;;
1446;SDS011;717;51.522;7.266;2023-09-08T14:57:05;3.20;;;2.90;;
1446;SDS011;717;51.522;7.266;2023-09-08T14:59:35;3.25;;;2.95;;
1446;SDS011;717;51.522;7.266;2023-09-08T15:02:05;3.42;;;3.13;;
1446;SDS011;717;51.522;7.266;2023-09-08T15:04:37;3.22;;;2.92;;
1446;SDS011;717;51.522;7.266;2023-09-08T15:07:09;3.83;;;3.17;;
1446;SDS011;717;51.522;7.266;2023-09-08T15:09:40;3.05;;;2.72;;
1446;SDS011;717;51.522;7.266;2023-09-08T15:12:10;3.47;;;3.17;;
1446;SDS011;717;51.522;7.266;2023-09-08T15:14:40;4.25;;;3.33;;
1446;SDS011;717;51.522;7.266;2023-09-08T15:17:10;3.42;;;3.13;;
1446;SDS011;717;51.522;7.266;2023-09-08T15:19:40;3.45;;;3.15;;
1446;SDS011;717;51.522;7.266;2023-09-08T15:22:13;3.95;;;3.35;;
1446;SDS011;717;51.522;7.266;2023-09-08T15:24:43;3.22;;;2.97;;
1446;SDS011;717;51.522;7.266;2023-09-08T15:27:13;3.33;;;2.90;;
1446;SDS011;717;51.522;7.266;2023-09-08T15:29:43;3.47;;;3.17;;
1446;SDS011;717;51.522;7.266;2023-09-08T15:32:13;3.55;;;3.22;;
1446;SDS011;717;51.522;7.266;2023-09-08T15:34:43;3.67;;;3.38;;
1446;SDS011;717;51.522;7.266;2023-09-08T15:37:19;3.72;;;3.30;;
1446;SDS011;717;51.522;7.266;2023-09-08T15:39:49;3.47;;;3.17;;
1446;SDS011;717;51.522;7.266;2023-09-08T15:42:19;3.28;;;2.97;;
1446;SDS011;717;51.522;7.266;2023-09-08T15:44:49;3.45;;;3.00;;
1446;SDS011;717;51.522;7.266;2023-09-08T15:47:19;3.65;;;3.35;;
1446;SDS011;717;51.522;7.266;2023-09-08T15:49:49;3.15;;;2.88;;
1446;SDS011;717;51.522;7.266;2023-09-08T15:52:21;3.05;;;2.85;;
1446;SDS011;717;51.522;7.266;2023-09-08T15:54:52;3.70;;;3.40;;
1446;SDS011;717;51.522;7.266;2023-09-08T15:57:22;3.50;;;3.20;;
1446;SDS011;717;51.522;7.266;2023-09-08T15:59:52;4.45;;;3.35;;
1446;SDS011;717;51.522;7.266;2023-09-08T16:02:22;3.67;;;3.35;;